Minot International Airport
KMOT : now visible

Airfield :











YOU CAN JOIN US ON...

 
LOGIN :

Register | Disclaimer

   EN    FR    IT 

 









Legend :    VFR   Marginal VFR   IFR   Intensive IFR   Very Intensive IFR
Visi :
Ceiling :
>= 8 km
>= 3000ft
5 to 8 km
1000 to 3000 ft
1500m to 5 km
500 to 1000 ft
800 to 1500m
200 to 500 ft
< 800m
< 200 ft
Symbols :   Thunderstorms  Fog  Heavy snow  Heavy precipitations  Wind > 20 kt






- Airport Elevation : 1716 ft
- IATA code : MOT


KMOT - Minot International

CURRENT METAR :
  • 291454Z VRB03KT 10SM CLR 14/04 A3026 RMK AO2 SLP253 T01390044 51001

EXPIRED METARs :
  • 291354Z 21006KT 10SM CLR 12/05 A3025 RMK AO2 SLP251 T01220050
  • 291254Z 22004KT 10SM CLR 09/04 A3026 RMK AO2 SLP253 T00890044

TAF KMOT
Valid from the 29 at 12:00 until the 30 at 12:00 UTC


291120Z 2912/3012 24007KT P6SM SKC
FM291600 35006KT P6SM FEW060 SCT180
FM300000 02007KT P6SM FEW060 SCT250
KZMP FIR / North America



MET'MAP, your aeronautical weather chart ! - Copyright ORBIFLY December 2007 - Disclaimer

ORBIFLY MET'MAP TEAM :

Programming & Development : Alexandra Zaïnal
Concept & original design : Baudouin d'Aumeries
Assistance for programming : Marc-Olivier Méhu
Technical & hardware support : Manuel Goepfert

Contact : metmap@orbifly.com




SOURCES & CREDITS :

   NOAA       Earth
Advisory